createdAt,value
2023-05-28T00:00:09.806Z,77.80
2023-05-28T00:02:41.032Z,77.60
2023-05-28T00:05:08.406Z,77.60
2023-05-28T00:07:35.908Z,76.80
2023-05-28T00:10:02.952Z,77.30
2023-05-28T00:12:30.185Z,77.40
2023-05-28T00:14:57.212Z,77.40
2023-05-28T00:17:24.331Z,76.80
2023-05-28T00:19:51.451Z,76.90
2023-05-28T00:22:19.263Z,78.40
2023-05-28T00:24:46.380Z,77.20
2023-05-28T00:27:13.445Z,77.80
2023-05-28T00:29:40.593Z,77.70
2023-05-28T00:32:07.891Z,78.40
2023-05-28T00:34:35.013Z,78.60
2023-05-28T00:37:02.276Z,78.30
2023-05-28T00:39:30.013Z,78.60
2023-05-28T00:42:04.221Z,78.30
2023-05-28T00:44:32.740Z,78.50
2023-05-28T00:47:00.955Z,78.60
2023-05-28T00:49:28.735Z,78.00
2023-05-28T00:51:57.408Z,78.80
2023-05-28T00:54:24.744Z,78.70
2023-05-28T00:56:54.102Z,79.10
2023-05-28T00:59:23.030Z,79.40
2023-05-28T01:01:50.111Z,78.50
2023-05-28T01:04:17.849Z,78.60
2023-05-28T01:06:45.287Z,77.90
2023-05-28T01:09:12.648Z,78.40
2023-05-28T01:11:41.056Z,78.30
2023-05-28T01:14:08.478Z,78.80
2023-05-28T01:16:36.376Z,79.30
2023-05-28T01:19:10.571Z,77.80
2023-05-28T01:21:42.628Z,78.10
2023-05-28T01:24:10.535Z,78.20
2023-05-28T01:26:37.663Z,78.00
2023-05-28T01:29:14.472Z,77.90
2023-05-28T01:31:42.041Z,77.50
2023-05-28T01:34:09.886Z,77.30
2023-05-28T01:36:39.300Z,77.30
2023-05-28T01:39:07.257Z,77.40
2023-05-28T01:41:34.299Z,76.90
2023-05-28T01:44:01.500Z,77.10
2023-05-28T01:46:29.743Z,76.70
2023-05-28T01:48:57.052Z,76.40
2023-05-28T01:51:24.280Z,76.50
2023-05-28T01:53:53.358Z,76.80
2023-05-28T01:56:20.808Z,77.20
2023-05-28T01:58:48.333Z,76.80
2023-05-28T02:01:16.043Z,77.20
2023-05-28T02:03:43.894Z,77.20
2023-05-28T02:06:12.397Z,76.30
2023-05-28T02:08:39.449Z,76.40
2023-05-28T02:11:06.494Z,76.50
2023-05-28T02:13:35.082Z,76.30
2023-05-28T02:16:02.515Z,76.60
2023-05-28T02:18:29.622Z,76.30
2023-05-28T02:20:57.023Z,76.90
2023-05-28T02:23:26.144Z,76.40
2023-05-28T02:25:53.338Z,76.20
2023-05-28T02:28:20.668Z,76.80
2023-05-28T02:30:47.686Z,77.50
2023-05-28T02:33:17.777Z,77.00
2023-05-28T02:35:46.244Z,77.10
2023-05-28T02:38:13.480Z,76.30
2023-05-28T02:40:40.638Z,76.20
2023-05-28T02:43:07.717Z,76.70
2023-05-28T02:45:34.708Z,76.30
2023-05-28T02:48:03.913Z,76.40
2023-05-28T02:50:31.359Z,77.10
2023-05-28T02:53:22.164Z,77.30
2023-05-28T02:55:50.509Z,77.10
2023-05-28T02:58:18.790Z,77.50
2023-05-28T03:00:47.612Z,77.70
2023-05-28T03:03:15.341Z,77.60
2023-05-28T03:05:43.259Z,77.70
2023-05-28T03:08:10.825Z,78.30
2023-05-28T03:10:39.529Z,78.60
2023-05-28T03:13:06.686Z,78.70
2023-05-28T03:15:33.994Z,79.10
2023-05-28T03:18:01.211Z,79.00
2023-05-28T03:20:30.438Z,78.70
2023-05-28T03:22:59.059Z,79.10
2023-05-28T03:25:27.209Z,78.80
2023-05-28T03:27:55.053Z,78.90
2023-05-28T03:30:25.967Z,79.10
2023-05-28T03:32:55.762Z,80.00
2023-05-28T03:35:23.365Z,79.60
2023-05-28T03:37:50.779Z,80.20
2023-05-28T03:40:18.178Z,80.20
2023-05-28T03:42:45.177Z,80.10
2023-05-28T03:45:12.646Z,80.80
2023-05-28T03:47:39.664Z,80.50
2023-05-28T03:50:07.340Z,80.50
2023-05-28T03:52:34.343Z,80.20
2023-05-28T03:55:01.495Z,80.30
2023-05-28T03:57:28.909Z,80.00
2023-05-28T03:59:58.432Z,80.60
2023-05-28T04:02:25.738Z,80.40
2023-05-28T04:04:53.140Z,80.10
2023-05-28T04:07:20.163Z,80.40
2023-05-28T04:09:47.199Z,80.10
2023-05-28T04:12:16.127Z,80.40
2023-05-28T04:14:43.760Z,81.10
2023-05-28T04:17:13.141Z,79.90
2023-05-28T04:19:40.653Z,80.50
2023-05-28T04:22:08.024Z,80.30
2023-05-28T04:24:35.033Z,80.40
2023-05-28T04:27:02.314Z,80.40
2023-05-28T04:29:31.524Z,79.80
2023-05-28T04:31:58.813Z,80.50
2023-05-28T04:34:26.131Z,79.60
2023-05-28T04:36:53.343Z,79.80
2023-05-28T04:39:22.291Z,80.70
2023-05-28T04:41:50.302Z,79.70
2023-05-28T04:44:17.370Z,80.10
2023-05-28T04:46:46.461Z,80.10
2023-05-28T04:49:13.721Z,80.00
2023-05-28T04:51:41.272Z,80.00
2023-05-28T04:54:08.540Z,79.40
2023-05-28T04:56:36.507Z,79.70
2023-05-28T04:59:06.218Z,80.00
2023-05-28T05:01:36.985Z,79.40
2023-05-28T05:04:04.982Z,78.70
2023-05-28T05:06:34.427Z,79.30
2023-05-28T05:09:01.743Z,79.00
2023-05-28T05:11:28.967Z,78.70
2023-05-28T05:13:56.030Z,78.70
2023-05-28T05:16:24.230Z,77.80
2023-05-28T05:18:51.334Z,77.90
2023-05-28T05:21:18.587Z,78.20
2023-05-28T05:23:45.706Z,77.50
2023-05-28T05:26:18.101Z,76.60
2023-05-28T05:28:45.812Z,76.70
2023-05-28T05:31:15.036Z,76.10
2023-05-28T05:33:42.416Z,76.60
2023-05-28T05:36:33.523Z,76.90
2023-05-28T05:39:23.440Z,76.30
2023-05-28T05:42:02.692Z,77.10
2023-05-28T05:44:33.437Z,76.20
2023-05-28T05:47:01.044Z,76.00
2023-05-28T05:49:27.984Z,75.30
2023-05-28T05:51:55.016Z,76.30
2023-05-28T05:54:22.098Z,75.70
2023-05-28T05:56:49.870Z,75.50
2023-05-28T05:59:17.034Z,75.30
2023-05-28T06:01:44.504Z,75.30
2023-05-28T06:04:11.642Z,74.40
2023-05-28T06:07:13.899Z,73.50
2023-05-28T06:09:52.810Z,73.90
2023-05-28T06:12:32.535Z,73.90
2023-05-28T06:15:01.748Z,74.60
2023-05-28T06:17:28.719Z,74.80
2023-05-28T06:19:55.686Z,74.50
2023-05-28T06:22:23.868Z,74.20
2023-05-28T06:24:53.523Z,74.60
2023-05-28T06:27:20.806Z,74.00
2023-05-28T06:29:47.984Z,73.70
2023-05-28T06:32:15.387Z,73.30
2023-05-28T06:34:44.402Z,73.30
2023-05-28T06:37:11.591Z,72.90
2023-05-28T06:39:38.503Z,73.20
2023-05-28T06:42:07.127Z,73.20
2023-05-28T06:44:40.069Z,72.20
2023-05-28T06:47:13.977Z,72.30
2023-05-28T06:49:42.161Z,72.30
2023-05-28T06:52:09.506Z,72.40
2023-05-28T06:54:36.513Z,72.80
2023-05-28T06:57:05.354Z,71.50
2023-05-28T06:59:55.549Z,69.70
2023-05-28T07:02:41.289Z,70.20
2023-05-28T07:05:21.707Z,69.80
2023-05-28T07:07:49.418Z,67.90
2023-05-28T07:10:17.079Z,67.50
2023-05-28T07:12:44.703Z,67.70
2023-05-28T07:15:12.153Z,66.60
2023-05-28T07:17:39.966Z,67.90
2023-05-28T07:20:08.289Z,65.60
2023-05-28T07:23:07.877Z,67.40
2023-05-28T07:25:34.922Z,65.60
2023-05-28T07:28:02.109Z,65.80
2023-05-28T07:30:34.449Z,65.90
2023-05-28T07:33:05.295Z,65.70
2023-05-28T07:35:32.407Z,64.90
2023-05-28T07:37:59.951Z,65.40
2023-05-28T07:40:27.274Z,66.40
2023-05-28T07:43:14.190Z,65.80
2023-05-28T07:45:41.419Z,65.70
2023-05-28T07:48:10.397Z,64.90
2023-05-28T07:50:58.200Z,65.90
2023-05-28T07:53:47.359Z,65.00
2023-05-28T07:56:23.228Z,66.30
2023-05-28T07:58:51.175Z,66.20
2023-05-28T08:01:22.636Z,65.10
2023-05-28T08:03:52.472Z,65.00
2023-05-28T08:06:22.773Z,64.20
2023-05-28T08:08:49.912Z,65.00
2023-05-28T08:11:17.726Z,64.40
2023-05-28T08:13:44.787Z,64.80
2023-05-28T08:16:12.921Z,65.00
2023-05-28T08:18:58.812Z,65.00
2023-05-28T08:21:26.523Z,65.20
2023-05-28T08:23:56.365Z,65.00
2023-05-28T08:26:23.421Z,64.40
2023-05-28T08:28:50.385Z,64.60
2023-05-28T08:31:17.685Z,64.00
2023-05-28T08:33:54.695Z,64.40
2023-05-28T08:36:21.794Z,64.30
2023-05-28T08:38:52.462Z,65.60
2023-05-28T08:41:21.072Z,64.70
2023-05-28T08:43:49.280Z,64.60
2023-05-28T08:46:17.124Z,64.60
2023-05-28T08:49:03.684Z,65.70
2023-05-28T08:51:34.497Z,64.70
2023-05-28T08:54:02.311Z,64.60
2023-05-28T08:56:30.518Z,64.10
2023-05-28T08:58:58.035Z,64.70
2023-05-28T09:01:25.214Z,65.60
2023-05-28T09:04:07.518Z,65.00
2023-05-28T09:06:39.741Z,64.70
2023-05-28T09:09:11.144Z,64.50
2023-05-28T09:11:49.427Z,66.00
2023-05-28T09:14:19.608Z,64.90
2023-05-28T09:16:49.804Z,65.10
2023-05-28T09:19:21.053Z,63.60
2023-05-28T09:21:53.587Z,64.60
2023-05-28T09:24:29.454Z,65.00
2023-05-28T09:27:24.823Z,64.40
2023-05-28T09:29:52.890Z,64.50
2023-05-28T09:32:23.452Z,64.00
2023-05-28T09:34:51.294Z,64.50
2023-05-28T09:37:18.984Z,64.60
2023-05-28T09:39:45.953Z,64.00
2023-05-28T09:42:14.486Z,64.60
2023-05-28T09:44:42.042Z,65.30
2023-05-28T09:47:18.132Z,65.00
2023-05-28T09:49:48.675Z,65.40
2023-05-28T09:52:20.921Z,65.60
2023-05-28T09:54:56.731Z,66.60
2023-05-28T09:57:25.978Z,64.90
2023-05-28T09:59:55.278Z,65.30
2023-05-28T10:02:22.317Z,65.50
2023-05-28T10:04:53.702Z,65.20
2023-05-28T10:07:21.492Z,66.50
2023-05-28T10:09:48.873Z,65.60
2023-05-28T10:12:22.114Z,64.60
2023-05-28T10:14:50.184Z,65.00
2023-05-28T10:17:37.134Z,65.20
2023-05-28T10:20:06.203Z,65.80
2023-05-28T10:22:33.763Z,65.10
2023-05-28T10:25:01.905Z,66.80
2023-05-28T10:27:31.290Z,65.80
2023-05-28T10:29:58.253Z,66.00
2023-05-28T10:32:25.250Z,66.30
2023-05-28T10:35:01.467Z,65.10
2023-05-28T10:37:28.439Z,64.30
2023-05-28T10:39:55.577Z,65.60
2023-05-28T10:42:22.619Z,65.10
2023-05-28T10:44:53.638Z,62.20
2023-05-28T10:47:20.723Z,62.60
2023-05-28T10:50:15.058Z,63.70
2023-05-28T10:52:45.079Z,63.90
2023-05-28T10:55:13.474Z,61.70
2023-05-28T10:57:47.767Z,61.00
2023-05-28T11:00:23.190Z,61.50
2023-05-28T11:02:53.076Z,62.50
2023-05-28T11:05:26.568Z,63.30
2023-05-28T11:07:54.034Z,62.80
2023-05-28T11:10:21.258Z,62.90
2023-05-28T11:12:48.919Z,62.50
2023-05-28T11:15:16.338Z,61.80
2023-05-28T11:17:44.520Z,61.50
2023-05-28T11:20:28.722Z,61.20
2023-05-28T11:22:56.708Z,61.70
2023-05-28T11:25:26.601Z,61.30
2023-05-28T11:27:55.020Z,60.80
2023-05-28T11:30:22.456Z,62.60
2023-05-28T11:32:49.857Z,60.60
2023-05-28T11:35:18.872Z,60.20
2023-05-28T11:37:46.876Z,60.90
2023-05-28T11:40:14.981Z,60.90
2023-05-28T11:42:43.097Z,60.50
2023-05-28T11:45:13.099Z,59.90
2023-05-28T11:50:25.223Z,59.60
2023-05-28T11:52:52.245Z,59.10
2023-05-28T11:55:19.281Z,59.10
2023-05-28T11:57:56.447Z,59.50
2023-05-28T12:00:35.143Z,59.70
2023-05-28T12:03:02.519Z,60.10
2023-05-28T12:05:39.438Z,59.90
2023-05-28T12:08:13.155Z,59.90
2023-05-28T12:10:40.294Z,59.30
2023-05-28T12:13:07.271Z,59.50
2023-05-28T12:15:34.351Z,59.30
2023-05-28T12:18:02.288Z,59.60
2023-05-28T12:20:33.078Z,58.90
2023-05-28T12:23:04.444Z,60.10
2023-05-28T12:25:44.183Z,58.70
2023-05-28T12:28:19.158Z,58.80
2023-05-28T12:30:49.996Z,59.60
2023-05-28T12:33:20.408Z,58.50
2023-05-28T12:35:47.455Z,58.50
2023-05-28T12:38:14.926Z,59.40
2023-05-28T12:40:42.127Z,58.90
2023-05-28T12:43:09.171Z,58.20
2023-05-28T12:45:38.009Z,58.50
2023-05-28T12:48:05.475Z,59.00
2023-05-28T12:50:32.746Z,57.90
2023-05-28T12:52:59.961Z,58.20
2023-05-28T12:55:27.158Z,58.90
2023-05-28T12:57:54.381Z,57.70
2023-05-28T13:00:21.825Z,57.40
2023-05-28T13:02:49.259Z,55.90
2023-05-28T13:05:16.776Z,57.00
2023-05-28T13:07:44.574Z,56.90
2023-05-28T13:10:14.341Z,56.40
2023-05-28T13:12:42.558Z,56.00
2023-05-28T13:15:09.961Z,57.70
2023-05-28T13:17:37.162Z,56.40
2023-05-28T13:20:11.773Z,54.90
2023-05-28T13:22:39.587Z,55.60
2023-05-28T13:25:07.501Z,56.70
2023-05-28T13:27:34.790Z,56.70
2023-05-28T13:30:03.351Z,55.90
2023-05-28T13:32:30.648Z,56.70
2023-05-28T13:34:59.628Z,55.40
2023-05-28T13:37:27.488Z,55.20
2023-05-28T13:39:54.761Z,53.70
2023-05-28T13:42:26.957Z,54.30
2023-05-28T13:44:54.347Z,54.40
2023-05-28T13:47:22.301Z,55.30
2023-05-28T13:49:49.222Z,54.70
2023-05-28T13:52:16.235Z,54.40
2023-05-28T13:54:43.236Z,54.20
2023-05-28T13:57:10.880Z,54.70
2023-05-28T13:59:37.798Z,55.90
2023-05-28T14:02:04.911Z,54.20
2023-05-28T14:04:31.972Z,54.50
2023-05-28T14:06:59.004Z,54.40
2023-05-28T14:09:26.106Z,54.10
2023-05-28T14:14:23.291Z,53.10
2023-05-28T14:16:51.223Z,52.90
2023-05-28T14:19:18.947Z,52.60
2023-05-28T14:21:46.452Z,52.20
2023-05-28T14:24:13.525Z,52.40
2023-05-28T14:26:40.463Z,51.80
2023-05-28T14:29:07.568Z,52.00
2023-05-28T14:31:34.542Z,52.20
2023-05-28T14:34:01.486Z,53.00
2023-05-28T14:36:28.437Z,53.80
2023-05-28T14:38:55.538Z,53.20
2023-05-28T14:41:22.515Z,52.10
2023-05-28T14:43:49.489Z,51.20
2023-05-28T14:46:16.661Z,50.60
2023-05-28T14:48:44.007Z,49.70
2023-05-28T14:51:13.318Z,50.60
2023-05-28T14:53:40.404Z,51.50
2023-05-28T14:56:07.539Z,51.70
2023-05-28T14:58:35.693Z,50.30
2023-05-28T15:01:04.081Z,48.60
2023-05-28T15:03:31.778Z,49.50
2023-05-28T15:05:59.199Z,49.70
2023-05-28T15:08:29.677Z,50.10
2023-05-28T15:10:57.928Z,50.50
2023-05-28T15:13:24.935Z,51.80
2023-05-28T15:15:52.165Z,52.60
2023-05-28T15:18:19.792Z,51.70
2023-05-28T15:20:46.786Z,50.60
2023-05-28T15:23:13.904Z,50.60
2023-05-28T15:25:41.116Z,51.40
2023-05-28T15:28:09.710Z,53.40
2023-05-28T15:30:36.710Z,53.80
2023-05-28T15:33:03.942Z,55.00
2023-05-28T15:35:31.037Z,55.40
2023-05-28T15:37:58.106Z,54.60
2023-05-28T15:40:25.279Z,53.40
2023-05-28T15:42:56.195Z,54.70
2023-05-28T15:45:24.714Z,55.70
2023-05-28T15:47:51.909Z,53.60
2023-05-28T15:50:19.022Z,54.40
2023-05-28T15:52:46.031Z,54.40
2023-05-28T15:55:13.101Z,54.80
2023-05-28T15:57:40.235Z,54.50
2023-05-28T16:00:07.950Z,54.70
2023-05-28T16:02:42.629Z,54.00
2023-05-28T16:05:10.336Z,54.60
2023-05-28T16:07:37.423Z,55.30
2023-05-28T16:10:04.495Z,55.50
2023-05-28T16:12:31.532Z,55.40
2023-05-28T16:14:58.942Z,55.10
2023-05-28T16:17:27.272Z,55.90
2023-05-28T16:19:54.385Z,55.30
2023-05-28T16:22:21.474Z,55.40
2023-05-28T16:24:48.770Z,55.60
2023-05-28T16:27:15.885Z,57.40
2023-05-28T16:29:45.207Z,56.70
2023-05-28T16:32:16.999Z,57.40
2023-05-28T16:34:44.528Z,56.60
2023-05-28T16:37:11.847Z,56.40
2023-05-28T16:39:38.899Z,57.00
2023-05-28T16:42:06.053Z,56.90
2023-05-28T16:44:33.180Z,55.80
2023-05-28T16:47:00.960Z,55.80
2023-05-28T16:49:28.374Z,56.60
2023-05-28T16:51:58.561Z,56.50
2023-05-28T16:54:30.777Z,55.90
2023-05-28T16:56:58.025Z,56.90
2023-05-28T16:59:27.425Z,56.00
2023-05-28T17:01:55.003Z,55.70
2023-05-28T17:04:21.928Z,56.00
2023-05-28T17:06:56.528Z,55.00
2023-05-28T17:09:23.858Z,54.90
2023-05-28T17:11:51.502Z,55.50
2023-05-28T17:14:18.614Z,55.30
2023-05-28T17:16:46.076Z,56.00
2023-05-28T17:19:13.187Z,56.00
2023-05-28T17:21:40.159Z,56.40
2023-05-28T17:24:08.084Z,56.10
2023-05-28T17:26:35.110Z,56.50
2023-05-28T17:29:02.058Z,55.80
2023-05-28T17:31:29.154Z,55.80
2023-05-28T17:33:56.570Z,56.00
2023-05-28T17:36:23.631Z,56.30
2023-05-28T17:38:50.830Z,56.70
2023-05-28T17:41:18.263Z,57.10
2023-05-28T17:43:45.994Z,57.10
2023-05-28T17:46:13.349Z,57.70
2023-05-28T17:48:40.679Z,57.50
2023-05-28T17:51:09.999Z,57.70
2023-05-28T17:53:43.284Z,58.20
2023-05-28T17:56:14.539Z,58.60
2023-05-28T17:58:41.627Z,59.40
2023-05-28T18:01:08.733Z,59.70
2023-05-28T18:03:37.750Z,60.30
2023-05-28T18:06:05.165Z,60.40
2023-05-28T18:08:32.200Z,60.80
2023-05-28T18:10:59.158Z,61.00
2023-05-28T18:13:26.523Z,61.80
2023-05-28T18:15:55.430Z,62.30
2023-05-28T18:18:23.212Z,63.90
2023-05-28T18:20:50.245Z,64.20
2023-05-28T18:23:17.434Z,64.80
2023-05-28T18:25:44.440Z,64.40
2023-05-28T18:28:12.338Z,64.50
2023-05-28T18:30:42.518Z,65.30
2023-05-28T18:33:10.015Z,66.20
2023-05-28T18:35:36.997Z,65.90
2023-05-28T18:38:04.079Z,66.40
2023-05-28T18:40:31.299Z,67.10
2023-05-28T18:42:59.260Z,67.70
2023-05-28T18:45:27.009Z,68.10
2023-05-28T18:47:54.143Z,68.10
2023-05-28T18:50:21.356Z,68.10
2023-05-28T18:52:48.316Z,68.80
2023-05-28T18:55:15.275Z,69.80
2023-05-28T18:57:42.199Z,70.60
2023-05-28T19:00:09.968Z,70.20
2023-05-28T19:02:37.024Z,71.10
2023-05-28T19:05:04.542Z,73.00
2023-05-28T19:07:31.483Z,73.20
2023-05-28T19:10:02.004Z,72.40
2023-05-28T19:12:30.044Z,72.10
2023-05-28T19:14:59.895Z,73.50
2023-05-28T19:17:27.271Z,74.40
2023-05-28T19:19:54.247Z,75.20
2023-05-28T19:22:21.196Z,75.00
2023-05-28T19:24:49.882Z,74.40
2023-05-28T19:27:16.968Z,74.30
2023-05-28T19:29:43.933Z,74.10
2023-05-28T19:32:11.090Z,75.20
2023-05-28T19:34:38.112Z,77.10
2023-05-28T19:37:05.157Z,77.40
2023-05-28T19:39:32.193Z,79.40
2023-05-28T19:41:59.286Z,78.10
2023-05-28T19:44:29.014Z,78.10
2023-05-28T19:46:56.154Z,78.50
2023-05-28T19:49:23.189Z,78.70
2023-05-28T19:51:50.139Z,79.40
2023-05-28T19:54:17.136Z,79.20
2023-05-28T19:56:44.219Z,79.80
2023-05-28T19:59:11.333Z,80.40
2023-05-28T20:01:38.357Z,81.30
2023-05-28T20:04:06.060Z,80.60
2023-05-28T20:06:33.119Z,79.90
2023-05-28T20:09:00.214Z,79.70
2023-05-28T20:11:27.381Z,81.10
2023-05-28T20:13:54.559Z,80.70
2023-05-28T20:16:21.702Z,81.20
2023-05-28T20:18:49.901Z,81.50
2023-05-28T20:21:18.413Z,83.10
2023-05-28T20:23:45.538Z,81.30
2023-05-28T20:26:12.486Z,81.40
2023-05-28T20:28:39.525Z,82.80
2023-05-28T20:31:06.580Z,84.00
2023-05-28T20:33:33.758Z,83.30
2023-05-28T20:36:01.740Z,84.60
2023-05-28T20:38:28.660Z,84.00
2023-05-28T20:40:55.758Z,84.30
2023-05-28T20:43:23.713Z,84.30
2023-05-28T20:45:50.778Z,84.30
2023-05-28T20:48:17.803Z,86.10
2023-05-28T20:50:44.713Z,86.90
2023-05-28T20:53:11.693Z,86.60
2023-05-28T20:55:38.616Z,87.20
2023-05-28T20:58:05.573Z,87.00
2023-05-28T21:00:33.238Z,87.60
2023-05-28T21:03:00.510Z,86.90
2023-05-28T21:05:27.642Z,88.60
2023-05-28T21:07:54.676Z,88.60
2023-05-28T21:10:21.664Z,88.50
2023-05-28T21:12:48.756Z,88.20
2023-05-28T21:15:18.604Z,89.00
2023-05-28T21:17:47.144Z,88.50
2023-05-28T21:20:14.177Z,88.20
2023-05-28T21:22:42.181Z,89.00
2023-05-28T21:25:09.445Z,90.10
2023-05-28T21:27:37.939Z,90.10
2023-05-28T21:30:05.118Z,90.00
2023-05-28T21:32:32.152Z,90.70
2023-05-28T21:34:59.390Z,90.50
2023-05-28T21:37:26.440Z,90.40
2023-05-28T21:39:54.331Z,90.80
2023-05-28T21:42:21.349Z,90.80
2023-05-28T21:44:48.286Z,90.60
2023-05-28T21:47:15.222Z,91.80
2023-05-28T21:49:42.186Z,90.50
2023-05-28T21:52:09.115Z,90.50
2023-05-28T21:54:36.149Z,90.50
2023-05-28T21:57:04.388Z,90.10
2023-05-28T21:59:31.780Z,90.30
2023-05-28T22:01:58.926Z,90.40
2023-05-28T22:04:25.994Z,90.30
2023-05-28T22:06:53.059Z,90.70
2023-05-28T22:09:21.020Z,90.90
2023-05-28T22:11:48.154Z,90.60
2023-05-28T22:14:20.386Z,90.20
2023-05-28T22:16:48.945Z,90.10
2023-05-28T22:19:18.243Z,88.80
2023-05-28T22:21:45.674Z,90.50
2023-05-28T22:24:12.884Z,90.00
2023-05-28T22:26:39.871Z,89.20
2023-05-28T22:29:06.866Z,88.30
2023-05-28T22:31:33.913Z,88.90
2023-05-28T22:34:02.062Z,90.10
2023-05-28T22:36:29.140Z,88.40
2023-05-28T22:38:56.249Z,90.00
2023-05-28T22:41:23.366Z,89.00
2023-05-28T22:43:50.477Z,85.40
2023-05-28T22:46:17.767Z,84.30
2023-05-28T22:48:44.793Z,83.10
2023-05-28T22:51:12.624Z,82.10
2023-05-28T22:53:41.577Z,81.40
2023-05-28T22:56:13.637Z,81.30
2023-05-28T22:58:41.540Z,81.30
2023-05-28T23:01:08.804Z,81.00
2023-05-28T23:03:35.847Z,80.90
2023-05-28T23:06:03.695Z,80.90
2023-05-28T23:08:30.872Z,81.50
2023-05-28T23:10:59.622Z,81.60
2023-05-28T23:13:27.172Z,81.80
2023-05-28T23:15:55.146Z,81.40
2023-05-28T23:18:22.257Z,81.10
2023-05-28T23:20:49.303Z,81.30
2023-05-28T23:23:16.394Z,81.80
2023-05-28T23:25:43.297Z,81.30
2023-05-28T23:28:10.934Z,81.30
2023-05-28T23:30:38.169Z,81.70
2023-05-28T23:33:05.711Z,81.50
2023-05-28T23:35:32.685Z,82.20
2023-05-28T23:37:59.714Z,81.60
2023-05-28T23:40:26.896Z,81.60
2023-05-28T23:42:53.844Z,82.20
2023-05-28T23:45:20.791Z,83.00
2023-05-28T23:47:47.752Z,83.60
2023-05-28T23:50:14.700Z,83.70
2023-05-28T23:52:41.603Z,82.70
2023-05-28T23:55:08.703Z,82.90
2023-05-28T23:57:35.743Z,83.20
